Time;durP1;ratioP1;P1;durP2;ratioP2;P2;SDS_P1;SDS_P2;PMS_P1;PMS_P2;Temp;Humidity;BMP_temperature;BMP_pressure;BME280_temperature;BME280_humidity;BME280_pressure;Samples;Min_cycle;Max_cycle;Signal;HPM_P1;HPM_P2
2023/03/28 00:02:24;;;;;;;4.53;2.53;;;;;;;;;;4997489;28;20039;-80
2023/03/28 00:04:51;;;;;;;5.72;2.40;;;;;;;;;;4996131;28;20100;-81
2023/03/28 00:07:19;;;;;;;4.38;2.40;;;;;;;;;;4986367;28;20157;-82
2023/03/28 00:09:47;;;;;;;4.80;2.30;;;;;;;;;;4988348;28;20475;-81
2023/03/28 00:12:13;;;;;;;6.05;2.45;;;;;;;;;;4986267;28;20035;-80
2023/03/28 00:14:39;;;;;;;6.32;2.40;;;;;;;;;;4987904;28;20483;-81
2023/03/28 00:17:06;;;;;;;5.10;2.30;;;;;;;;;;4989161;28;20088;-81
2023/03/28 00:19:32;;;;;;;2.92;2.00;;;;;;;;;;4986848;28;20503;-80
2023/03/28 00:21:58;;;;;;;3.85;2.20;;;;;;;;;;5005120;28;20041;-81
2023/03/28 00:24:24;;;;;;;3.30;2.20;;;;;;;;;;4986665;28;20039;-81
2023/03/28 00:26:53;;;;;;;6.03;2.17;;;;;;;;;;4986300;28;20046;-80
2023/03/28 00:29:20;;;;;;;7.22;2.50;;;;;;;;;;4988433;28;20037;-81
2023/03/28 00:31:48;;;;;;;3.72;2.08;;;;;;;;;;4981895;28;20039;-81
2023/03/28 00:34:14;;;;;;;7.10;2.47;;;;;;;;;;4988452;28;20038;-80
2023/03/28 00:36:41;;;;;;;5.32;2.22;;;;;;;;;;4987663;28;20031;-80
2023/03/28 00:39:09;;;;;;;5.70;2.30;;;;;;;;;;4983931;28;20500;-81
2023/03/28 00:41:38;;;;;;;6.72;2.47;;;;;;;;;;4987022;28;20088;-81
2023/03/28 00:44:38;;;;;;;3.35;2.17;;;;;;;;;;4984290;28;20038;-81
2023/03/28 00:47:05;;;;;;;3.38;2.17;;;;;;;;;;4983393;28;20047;-82
2023/03/28 00:49:31;;;;;;;7.13;2.50;;;;;;;;;;4985274;28;20047;-80
2023/03/28 00:51:59;;;;;;;4.43;2.33;;;;;;;;;;4980885;28;20039;-81
2023/03/28 00:54:28;;;;;;;4.03;2.35;;;;;;;;;;4986484;28;20046;-81
2023/03/28 00:56:57;;;;;;;4.35;2.20;;;;;;;;;;4989774;28;20145;-81
2023/03/28 00:59:27;;;;;;;5.13;2.50;;;;;;;;;;4988182;28;20054;-81
2023/03/28 01:01:54;;;;;;;5.85;2.42;;;;;;;;;;5005678;28;20038;-81
2023/03/28 01:04:21;;;;;;;4.20;2.50;;;;;;;;;;4990344;28;20061;-81
2023/03/28 01:06:53;;;;;;;5.20;2.38;;;;;;;;;;4992062;28;20041;-81
2023/03/28 01:09:20;;;;;;;6.40;2.30;;;;;;;;;;4985517;28;20039;-80
2023/03/28 01:11:50;;;;;;;3.40;2.28;;;;;;;;;;4991888;28;20104;-81
2023/03/28 01:14:20;;;;;;;6.10;2.78;;;;;;;;;;4989908;28;20064;-81
2023/03/28 01:16:48;;;;;;;7.25;2.72;;;;;;;;;;4988784;28;20049;-80
2023/03/28 01:19:43;;;;;;;4.75;2.90;;;;;;;;;;5006395;28;20034;-81
2023/03/28 01:22:47;;;;;;;4.35;2.47;;;;;;;;;;4986033;28;20122;-80
2023/03/28 01:25:31;;;;;;;;;;;;;;;;;;5008040;28;20558;-81
2023/03/28 01:28:17;;;;;;;;;;;;;;;;;;4991596;28;19924;-80
2023/03/28 01:31:04;;;;;;;5.88;2.70;;;;;;;;;;4989092;28;19914;-81
2023/03/28 01:34:06;;;;;;;7.20;2.83;;;;;;;;;;4992958;28;20089;-80
2023/03/28 01:36:58;;;;;;;6.55;2.83;;;;;;;;;;4986210;28;20038;-81
2023/03/28 01:39:41;;;;;;;5.82;2.83;;;;;;;;;;4999529;28;20124;-81
2023/03/28 01:42:20;;;;;;;5.13;2.63;;;;;;;;;;4989701;28;20030;-81
2023/03/28 01:44:49;;;;;;;3.95;3.10;;;;;;;;;;4989125;28;20503;-80
2023/03/28 01:47:23;;;;;;;4.97;3.10;;;;;;;;;;4991127;28;20602;-81
2023/03/28 01:50:02;;;;;;;4.57;3.10;;;;;;;;;;4986581;28;20093;-81
2023/03/28 01:52:36;;;;;;;5.85;2.88;;;;;;;;;;4988001;28;20030;-81
2023/03/28 01:55:25;;;;;;;5.90;3.17;;;;;;;;;;4989892;28;20561;-81
2023/03/28 01:57:55;;;;;;;5.63;2.97;;;;;;;;;;4987995;28;20034;-81
2023/03/28 02:00:28;;;;;;;5.53;2.97;;;;;;;;;;4988032;28;20387;-81
2023/03/28 02:03:12;;;;;;;4.85;2.92;;;;;;;;;;4988815;28;20042;-81
2023/03/28 02:05:50;;;;;;;5.53;2.90;;;;;;;;;;4988435;28;20054;-81
2023/03/28 02:08:17;;;;;;;5.25;2.95;;;;;;;;;;4988990;28;20044;-81
2023/03/28 02:11:03;;;;;;;6.18;2.97;;;;;;;;;;4958693;28;20050;-81
2023/03/28 02:13:49;;;;;;;5.38;2.92;;;;;;;;;;4990201;28;20026;-82
2023/03/28 02:16:37;;;;;;;5.68;3.03;;;;;;;;;;4988992;28;20056;-80
2023/03/28 02:19:30;;;;;;;4.63;2.80;;;;;;;;;;4987271;28;20066;-81
2023/03/28 02:22:38;;;;;;;8.07;3.30;;;;;;;;;;5005879;28;20034;-80
2023/03/28 02:25:16;;;;;;;;;;;;;;;;;;4990771;28;20031;-81
2023/03/28 02:28:10;;;;;;;5.65;3.13;;;;;;;;;;4992257;28;19914;-81
2023/03/28 02:30:41;;;;;;;;;;;;;;;;;;4991048;28;20042;-81
2023/03/28 02:33:43;;;;;;;6.60;2.88;;;;;;;;;;5004837;28;20274;-81
2023/03/28 02:36:32;;;;;;;5.20;2.83;;;;;;;;;;4988155;28;20134;-80
2023/03/28 02:39:19;;;;;;;6.50;3.03;;;;;;;;;;5001015;28;20035;-81
2023/03/28 02:42:13;;;;;;;4.60;3.08;;;;;;;;;;4987492;28;20043;-81
2023/03/28 02:44:49;;;;;;;4.50;3.15;;;;;;;;;;4983273;28;20108;-81
2023/03/28 02:47:24;;;;;;;6.60;3.33;;;;;;;;;;4987660;28;20491;-80
2023/03/28 02:50:14;;;;;;;5.47;3.35;;;;;;;;;;4983983;28;20043;-81
2023/03/28 02:53:06;;;;;;;6.05;3.30;;;;;;;;;;4999411;28;20511;-81
2023/03/28 02:55:53;;;;;;;5.22;2.97;;;;;;;;;;4984869;28;20587;-81
2023/03/28 02:58:44;;;;;;;4.40;2.95;;;;;;;;;;4970588;28;20046;-80
2023/03/28 03:01:13;;;;;;;7.63;3.72;;;;;;;;;;4989414;28;20046;-81
2023/03/28 03:03:40;;;;;;;6.63;3.55;;;;;;;;;;4987063;28;20045;-81
2023/03/28 03:06:07;;;;;;;6.28;3.38;;;;;;;;;;4983653;28;20035;-80
2023/03/28 03:08:32;;;;;;;5.35;3.20;;;;;;;;;;4990578;28;20039;-80
2023/03/28 03:10:58;;;;;;;5.60;3.28;;;;;;;;;;4989166;28;20056;-81
2023/03/28 03:13:24;;;;;;;4.50;2.90;;;;;;;;;;4989057;28;20035;-80
2023/03/28 03:15:53;;;;;;;7.68;3.10;;;;;;;;;;5003393;28;20138;-80
2023/03/28 03:18:21;;;;;;;5.18;3.00;;;;;;;;;;4991436;28;20050;-79
2023/03/28 03:20:49;;;;;;;6.82;3.38;;;;;;;;;;4988483;28;20043;-80
2023/03/28 03:23:15;;;;;;;5.28;3.35;;;;;;;;;;4988966;28;20034;-80
2023/03/28 03:25:42;;;;;;;6.20;3.65;;;;;;;;;;4988912;28;20031;-81
2023/03/28 03:28:26;;;;;;;5.47;3.42;;;;;;;;;;4990063;28;20065;-79
2023/03/28 03:30:52;;;;;;;7.03;3.45;;;;;;;;;;4989062;28;20541;-81
2023/03/28 03:33:20;;;;;;;6.25;3.80;;;;;;;;;;4991346;28;20025;-81
2023/03/28 03:35:52;;;;;;;5.72;3.40;;;;;;;;;;4982858;28;20039;-81
2023/03/28 03:38:18;;;;;;;5.47;3.42;;;;;;;;;;4987342;28;20098;-80
2023/03/28 03:40:43;;;;;;;5.55;3.65;;;;;;;;;;4988574;28;20034;-81
2023/03/28 03:43:09;;;;;;;7.45;3.78;;;;;;;;;;4986438;28;20058;-81
2023/03/28 03:45:39;;;;;;;7.22;3.80;;;;;;;;;;5005286;28;20040;-80
2023/03/28 03:48:05;;;;;;;6.28;4.00;;;;;;;;;;4986853;28;20035;-80
2023/03/28 03:50:31;;;;;;;6.53;4.13;;;;;;;;;;4988061;28;20030;-81
2023/03/28 03:52:57;;;;;;;8.75;4.60;;;;;;;;;;4973718;28;20030;-81
2023/03/28 03:55:28;;;;;;;6.82;4.00;;;;;;;;;;4985394;28;20034;-81
2023/03/28 03:57:54;;;;;;;7.90;3.97;;;;;;;;;;4988438;28;20046;-80
2023/03/28 04:00:19;;;;;;;8.02;4.10;;;;;;;;;;4986933;28;20122;-80
2023/03/28 04:02:45;;;;;;;5.80;3.78;;;;;;;;;;4988050;28;20080;-80
2023/03/28 04:05:14;;;;;;;8.18;4.20;;;;;;;;;;4987026;28;20041;-81
2023/03/28 04:08:00;;;;;;;7.68;4.32;;;;;;;;;;4987810;28;20046;-80
2023/03/28 04:10:30;;;;;;;7.03;4.30;;;;;;;;;;4985854;28;20031;-80
2023/03/28 04:12:56;;;;;;;10.32;4.50;;;;;;;;;;5005065;28;20036;-80
2023/03/28 04:15:21;;;;;;;8.40;4.20;;;;;;;;;;4987774;28;20117;-81
2023/03/28 04:18:03;;;;;;;6.93;4.05;;;;;;;;;;4986925;28;20046;-80
2023/03/28 04:20:30;;;;;;;6.78;4.28;;;;;;;;;;4987707;28;20088;-80
2023/03/28 04:23:07;;;;;;;7.45;3.78;;;;;;;;;;4982322;28;20050;-80
2023/03/28 04:25:34;;;;;;;8.15;4.20;;;;;;;;;;4984653;28;20067;-81
2023/03/28 04:28:04;;;;;;;7.45;4.00;;;;;;;;;;4988048;28;20030;-80
2023/03/28 04:30:37;;;;;;;7.65;4.10;;;;;;;;;;4988178;28;20041;-81
2023/03/28 04:33:24;;;;;;;6.13;3.80;;;;;;;;;;4988962;28;20045;-81
2023/03/28 04:36:00;;;;;;;7.57;4.38;;;;;;;;;;4998038;28;20131;-81
2023/03/28 04:38:30;;;;;;;6.85;3.83;;;;;;;;;;4986846;28;20026;-81
2023/03/28 04:41:04;;;;;;;6.80;4.35;;;;;;;;;;4981745;28;20050;-80
2023/03/28 04:43:48;;;;;;;7.93;4.22;;;;;;;;;;4986858;28;20134;-80
2023/03/28 04:46:13;;;;;;;7.03;4.53;;;;;;;;;;4987543;28;20066;-82
2023/03/28 04:48:39;;;;;;;7.22;4.30;;;;;;;;;;4985674;28;20039;-81
2023/03/28 04:51:05;;;;;;;9.73;4.28;;;;;;;;;;5001951;28;20065;-81
2023/03/28 04:53:31;;;;;;;8.85;4.15;;;;;;;;;;4986552;28;20398;-82
2023/03/28 04:56:15;;;;;;;6.13;3.80;;;;;;;;;;4984994;28;20129;-81
2023/03/28 04:58:41;;;;;;;6.57;4.30;;;;;;;;;;4985000;28;20035;-81
2023/03/28 05:01:09;;;;;;;6.78;4.47;;;;;;;;;;4987587;28;20038;-81
2023/03/28 05:04:10;;;;;;;6.78;4.32;;;;;;;;;;4972572;28;20446;-80
2023/03/28 05:06:36;;;;;;;6.75;4.40;;;;;;;;;;4972403;28;20034;-81
2023/03/28 05:09:01;;;;;;;10.63;4.82;;;;;;;;;;4987665;28;20050;-81
2023/03/28 05:11:29;;;;;;;7.88;4.85;;;;;;;;;;4989807;28;20035;-80
2023/03/28 05:13:56;;;;;;;9.80;4.85;;;;;;;;;;4988267;28;20031;-80
2023/03/28 05:16:28;;;;;;;5.57;4.27;;;;;;;;;;4990263;28;20031;-81
2023/03/28 05:19:20;;;;;;;9.63;4.47;;;;;;;;;;4986599;28;20141;-81
2023/03/28 05:22:06;;;;;;;6.65;4.60;;;;;;;;;;4999042;28;20047;-81
2023/03/28 05:24:33;;;;;;;9.27;4.97;;;;;;;;;;4980650;28;20043;-81
2023/03/28 05:26:59;;;;;;;9.30;4.70;;;;;;;;;;4986697;28;20031;-81
2023/03/28 05:29:25;;;;;;;12.32;5.20;;;;;;;;;;4985635;28;20488;-81
2023/03/28 05:31:51;;;;;;;10.98;4.68;;;;;;;;;;5001797;28;20038;-80
2023/03/28 05:34:28;;;;;;;7.07;4.97;;;;;;;;;;4965107;28;20135;-81
2023/03/28 05:36:55;;;;;;;9.07;4.43;;;;;;;;;;5003044;28;20042;-81
2023/03/28 05:39:25;;;;;;;8.73;4.80;;;;;;;;;;4986038;28;20026;-82
2023/03/28 05:41:57;;;;;;;8.45;5.15;;;;;;;;;;4987163;28;20039;-79
2023/03/28 05:44:23;;;;;;;7.72;4.57;;;;;;;;;;4990600;28;20042;-80
2023/03/28 05:47:08;;;;;;;7.57;4.63;;;;;;;;;;4989299;28;20030;-80
2023/03/28 05:49:34;;;;;;;8.85;4.57;;;;;;;;;;5001680;28;20039;-81
2023/03/28 05:52:00;;;;;;;9.38;4.80;;;;;;;;;;4989236;28;20033;-82
2023/03/28 05:54:26;;;;;;;8.40;4.55;;;;;;;;;;4986930;28;20067;-81
2023/03/28 05:56:51;;;;;;;10.70;4.90;;;;;;;;;;5013247;23;20034;-83
2023/03/28 05:59:23;;;;;;;8.23;4.57;;;;;;;;;;5035694;28;20049;-82
2023/03/28 06:01:54;;;;;;;7.95;4.82;;;;;;;;;;5034713;28;20675;-83
2023/03/28 06:04:21;;;;;;;9.93;5.00;;;;;;;;;;5049521;28;20180;-82
2023/03/28 06:06:49;;;;;;;7.32;4.18;;;;;;;;;;5034769;28;20034;-82
2023/03/28 06:09:21;;;;;;;8.90;4.72;;;;;;;;;;5023712;28;20068;-82
2023/03/28 06:11:53;;;;;;;6.93;4.28;;;;;;;;;;5024546;28;20589;-83
2023/03/28 06:14:19;;;;;;;9.13;4.40;;;;;;;;;;5025459;28;20108;-82
2023/03/28 06:16:44;;;;;;;9.90;4.63;;;;;;;;;;5021665;28;20017;-82
2023/03/28 06:19:10;;;;;;;8.68;4.90;;;;;;;;;;5008584;28;20036;-82
2023/03/28 06:21:36;;;;;;;8.27;4.22;;;;;;;;;;5042092;28;20034;-82
2023/03/28 06:24:05;;;;;;;9.95;4.22;;;;;;;;;;5023667;28;20034;-82
2023/03/28 06:26:36;;;;;;;7.80;3.78;;;;;;;;;;5033807;28;20044;-84
2023/03/28 06:29:02;;;;;;;8.55;4.10;;;;;;;;;;5031944;28;20034;-83
2023/03/28 06:31:34;;;;;;;6.60;3.85;;;;;;;;;;5024181;28;20120;-85
2023/03/28 06:34:01;;;;;;;7.68;3.67;;;;;;;;;;5024442;28;20498;-84
2023/03/28 06:36:26;;;;;;;6.13;3.78;;;;;;;;;;5022824;28;20041;-84
2023/03/28 06:38:52;;;;;;;7.45;3.95;;;;;;;;;;5028005;28;20037;-83
2023/03/28 06:41:19;;;;;;;12.23;4.00;;;;;;;;;;5032854;28;20037;-81
2023/03/28 06:43:45;;;;;;;8.02;3.70;;;;;;;;;;5020432;28;20023;-83
2023/03/28 06:46:30;;;;;;;5.55;3.50;;;;;;;;;;5022041;28;20052;-83
2023/03/28 06:48:55;;;;;;;6.43;3.97;;;;;;;;;;5023424;28;20398;-82
2023/03/28 06:51:39;;;;;;;5.75;3.85;;;;;;;;;;5020776;28;20473;-83
2023/03/28 06:54:05;;;;;;;6.93;3.70;;;;;;;;;;5023238;28;20034;-81
2023/03/28 06:56:32;;;;;;;7.43;3.75;;;;;;;;;;5026067;28;20041;-84
2023/03/28 06:58:58;;;;;;;7.90;3.25;;;;;;;;;;5019320;28;20030;-82
2023/03/28 07:01:26;;;;;;;5.93;2.75;;;;;;;;;;5033220;28;20030;-83
2023/03/28 07:03:58;;;;;;;7.47;3.38;;;;;;;;;;5023279;28;20478;-81
2023/03/28 07:06:25;;;;;;;5.88;3.35;;;;;;;;;;5033425;28;20171;-83
2023/03/28 07:08:51;;;;;;;4.18;2.92;;;;;;;;;;5023399;28;20045;-84
2023/03/28 07:11:22;;;;;;;6.72;3.45;;;;;;;;;;5024441;28;20044;-83
2023/03/28 07:13:49;;;;;;;9.75;4.57;;;;;;;;;;5024123;28;20034;-81
2023/03/28 07:16:17;;;;;;;10.50;3.80;;;;;;;;;;5018697;28;20388;-84
2023/03/28 07:18:43;;;;;;;9.95;3.60;;;;;;;;;;5040765;28;20091;-84
2023/03/28 07:21:14;;;;;;;11.18;4.20;;;;;;;;;;5021771;28;20046;-84
2023/03/28 07:23:40;;;;;;;22.00;8.20;;;;;;;;;;5006313;28;20044;-84
2023/03/28 07:26:08;;;;;;;6.90;2.97;;;;;;;;;;5031780;28;20043;-82
2023/03/28 07:28:34;;;;;;;5.47;2.75;;;;;;;;;;5001067;28;20034;-83
2023/03/28 07:31:03;;;;;;;6.57;2.90;;;;;;;;;;5023540;28;20053;-82
2023/03/28 07:33:32;;;;;;;9.40;2.92;;;;;;;;;;5021940;28;20042;-81
2023/03/28 07:36:00;;;;;;;7.25;2.85;;;;;;;;;;5010684;28;20025;-79
2023/03/28 07:38:25;;;;;;;6.50;2.80;;;;;;;;;;5046602;28;20497;-85
2023/03/28 07:40:54;;;;;;;4.50;2.30;;;;;;;;;;5022641;28;20129;-84
2023/03/28 07:43:20;;;;;;;4.88;2.40;;;;;;;;;;5024249;28;20515;-84
2023/03/28 07:45:46;;;;;;;4.93;2.58;;;;;;;;;;5023753;28;20030;-87
2023/03/28 07:48:12;;;;;;;6.18;2.55;;;;;;;;;;5018883;28;20158;-84
2023/03/28 07:50:37;;;;;;;6.60;3.10;;;;;;;;;;5024711;28;20087;-82
2023/03/28 07:53:03;;;;;;;6.18;2.80;;;;;;;;;;5022104;28;20498;-83
2023/03/28 07:55:35;;;;;;;6.70;2.50;;;;;;;;;;5023155;28;20087;-85
2023/03/28 07:58:01;;;;;;;5.53;2.80;;;;;;;;;;5033199;28;20087;-84
2023/03/28 08:00:30;;;;;;;5.72;2.47;;;;;;;;;;5019193;28;20041;-85
2023/03/28 08:03:14;;;;;;;6.80;2.53;;;;;;;;;;5021710;28;20073;-84
2023/03/28 08:05:42;;;;;;;5.05;2.60;;;;;;;;;;5034234;28;20040;-81
2023/03/28 08:08:08;;;;;;;4.63;2.22;;;;;;;;;;5033327;28;20029;-83
2023/03/28 08:10:34;;;;;;;3.85;2.50;;;;;;;;;;5023528;28;20029;-83
2023/03/28 08:13:02;;;;;;;5.90;2.30;;;;;;;;;;5023592;28;20402;-84
2023/03/28 08:15:28;;;;;;;6.20;2.28;;;;;;;;;;5001399;28;20054;-83
2023/03/28 08:17:53;;;;;;;10.50;2.65;;;;;;;;;;5024468;28;20033;-82
2023/03/28 08:20:20;;;;;;;7.25;2.33;;;;;;;;;;5022182;28;20026;-83
2023/03/28 08:22:54;;;;;;;4.32;2.38;;;;;;;;;;5023275;28;20502;-82
2023/03/28 08:25:40;;;;;;;5.82;2.33;;;;;;;;;;5033612;28;20414;-86
2023/03/28 08:28:10;;;;;;;6.03;2.30;;;;;;;;;;5018333;28;20117;-86
2023/03/28 08:30:36;;;;;;;3.95;2.05;;;;;;;;;;5031017;28;20038;-83
2023/03/28 08:33:03;;;;;;;5.45;2.10;;;;;;;;;;5007842;28;20063;-83
2023/03/28 08:35:30;;;;;;;5.03;1.95;;;;;;;;;;5031486;28;20037;-83
2023/03/28 08:37:59;;;;;;;10.85;2.20;;;;;;;;;;5005285;28;20107;-83
2023/03/28 08:40:27;;;;;;;7.28;2.00;;;;;;;;;;5031953;28;20677;-83
2023/03/28 08:43:27;;;;;;;5.45;2.40;;;;;;;;;;5030511;28;20030;-84
2023/03/28 08:45:56;;;;;;;4.90;2.20;;;;;;;;;;5021119;28;20034;-84
2023/03/28 08:48:33;;;;;;;4.53;2.58;;;;;;;;;;5018961;28;20466;-84
2023/03/28 08:51:04;;;;;;;5.55;2.13;;;;;;;;;;5028201;28;20021;-81
2023/03/28 08:53:34;;;;;;;13.95;2.67;;;;;;;;;;5036686;28;20033;-83
2023/03/28 08:56:02;;;;;;;7.07;2.50;;;;;;;;;;4999391;28;20065;-84
2023/03/28 08:58:36;;;;;;;6.90;2.58;;;;;;;;;;5022720;28;20088;-84
2023/03/28 09:01:02;;;;;;;5.63;2.28;;;;;;;;;;5023765;28;20486;-85
2023/03/28 09:03:31;;;;;;;11.90;2.83;;;;;;;;;;5027512;28;20052;-86
2023/03/28 09:06:08;;;;;;;6.70;2.30;;;;;;;;;;5021552;28;20025;-87
2023/03/28 09:08:46;;;;;;;8.15;2.40;;;;;;;;;;5031184;28;20037;-86
2023/03/28 09:11:29;;;;;;;6.72;2.15;;;;;;;;;;5023173;28;20037;-86
2023/03/28 09:14:20;;;;;;;5.35;2.08;;;;;;;;;;4988032;28;20646;-86
2023/03/28 09:16:58;;;;;;;5.40;2.33;;;;;;;;;;5006537;28;20034;-85
2023/03/28 09:19:37;;;;;;;5.50;2.20;;;;;;;;;;5036181;28;20292;-85
2023/03/28 09:22:31;;;;;;;4.50;1.90;;;;;;;;;;5025074;28;20405;-85
2023/03/28 09:25:39;;;;;;;5.90;2.20;;;;;;;;;;5005514;28;20034;-85
2023/03/28 09:28:04;;;;;;;4.70;2.10;;;;;;;;;;4993691;28;20507;-85
2023/03/28 09:30:33;;;;;;;3.78;2.03;;;;;;;;;;5009197;28;20064;-85
2023/03/28 09:33:04;;;;;;;4.93;1.90;;;;;;;;;;5037215;28;20071;-86
2023/03/28 09:35:31;;;;;;;4.72;2.00;;;;;;;;;;5035412;28;20120;-84
2023/03/28 09:38:02;;;;;;;4.03;1.67;;;;;;;;;;5026418;28;20037;-85
2023/03/28 09:40:33;;;;;;;2.60;1.80;;;;;;;;;;5037188;28;20037;-87
2023/03/28 09:43:24;;;;;;;5.82;1.92;;;;;;;;;;5030427;28;20053;-84
2023/03/28 09:46:06;;;;;;;3.90;1.92;;;;;;;;;;5035803;28;20061;-85
2023/03/28 09:48:57;;;;;;;4.65;1.85;;;;;;;;;;5010169;28;20044;-84
2023/03/28 09:51:28;;;;;;;2.95;1.73;;;;;;;;;;5025807;28;20053;-85
2023/03/28 09:53:53;;;;;;;3.92;2.03;;;;;;;;;;5026075;28;20052;-86
2023/03/28 09:56:30;;;;;;;4.35;2.00;;;;;;;;;;5024052;28;20399;-84
2023/03/28 09:59:22;;;;;;;4.35;1.90;;;;;;;;;;5023656;28;20040;-86
2023/03/28 10:01:51;;;;;;;3.42;2.00;;;;;;;;;;5007097;28;20302;-85
2023/03/28 10:04:37;;;;;;;4.38;1.95;;;;;;;;;;5015791;28;20518;-84
2023/03/28 10:07:31;;;;;;;5.32;1.83;;;;;;;;;;5030185;28;21078;-86
2023/03/28 10:10:23;;;;;;;3.83;1.70;;;;;;;;;;5012017;28;20042;-86
2023/03/28 10:13:02;;;;;;;4.05;2.10;;;;;;;;;;5019042;28;20045;-86
2023/03/28 10:15:32;;;;;;;3.50;1.98;;;;;;;;;;5008343;28;20037;-86
2023/03/28 10:18:20;;;;;;;4.07;1.75;;;;;;;;;;5024883;28;20136;-86
2023/03/28 10:20:55;;;;;;;5.63;2.10;;;;;;;;;;5017814;28;20486;-86
2023/03/28 10:23:23;;;;;;;3.90;2.20;;;;;;;;;;5009564;28;20037;-87
2023/03/28 10:25:53;;;;;;;5.05;1.98;;;;;;;;;;5034473;28;20053;-85
2023/03/28 10:28:33;;;;;;;5.30;2.10;;;;;;;;;;5025413;28;20034;-85
2023/03/28 10:31:00;;;;;;;6.63;3.72;;;;;;;;;;5039597;28;20041;-86
2023/03/28 10:33:35;;;;;;;5.85;1.77;;;;;;;;;;5004601;28;20033;-86
2023/03/28 10:36:27;;;;;;;7.50;2.50;;;;;;;;;;5010496;28;20037;-85
2023/03/28 10:38:55;;;;;;;3.65;2.30;;;;;;;;;;5024989;28;20120;-85
2023/03/28 10:41:55;;;;;;;5.72;2.35;;;;;;;;;;5015235;28;20068;-86
2023/03/28 10:44:39;;;;;;;4.57;2.55;;;;;;;;;;5025679;28;20152;-86
2023/03/28 10:47:17;;;;;;;5.28;2.30;;;;;;;;;;5017459;28;20038;-85
2023/03/28 10:49:52;;;;;;;5.13;2.60;;;;;;;;;;5024525;28;20030;-87
2023/03/28 10:52:35;;;;;;;5.25;2.10;;;;;;;;;;5026604;28;20461;-87
2023/03/28 10:55:11;;;;;;;6.72;2.65;;;;;;;;;;5034558;28;20462;-88
2023/03/28 10:58:03;;;;;;;2.90;1.95;;;;;;;;;;5019981;28;20030;-87
2023/03/28 11:00:59;;;;;;;4.10;1.75;;;;;;;;;;5024421;28;20037;-85
2023/03/28 11:03:48;;;;;;;3.63;1.85;;;;;;;;;;5024145;28;20064;-87
2023/03/28 11:06:28;;;;;;;4.55;1.73;;;;;;;;;;5008837;28;20469;-86
2023/03/28 11:09:03;;;;;;;4.43;1.90;;;;;;;;;;5006076;28;20104;-87
2023/03/28 11:12:01;;;;;;;5.88;1.70;;;;;;;;;;5022213;28;20505;-86
2023/03/28 11:14:27;;;;;;;2.72;1.50;;;;;;;;;;5018589;28;20038;-86
2023/03/28 11:17:05;;;;;;;5.63;2.00;;;;;;;;;;5006310;28;20033;-82
2023/03/28 11:20:05;;;;;;;3.65;1.70;;;;;;;;;;5023503;28;20101;-83
2023/03/28 11:22:52;;;;;;;3.70;1.60;;;;;;;;;;5017185;28;20049;-84
2023/03/28 11:25:34;;;;;;;4.03;1.52;;;;;;;;;;5005490;28;20034;-85
2023/03/28 11:29:07;;;;;;;4.20;2.30;;;;;;;;;;4973589;28;20042;-86
2023/03/28 11:31:40;;;;;;;2.80;1.55;;;;;;;;;;4939582;28;20046;-85
2023/03/28 11:34:26;;;;;;;2.90;1.50;;;;;;;;;;5000514;28;20495;-84
2023/03/28 11:36:59;;;;;;;4.15;1.73;;;;;;;;;;5022690;28;20129;-85
2023/03/28 11:39:31;;;;;;;4.32;1.60;;;;;;;;;;5025367;28;20061;-86
2023/03/28 11:42:03;;;;;;;3.58;1.60;;;;;;;;;;5026349;28;20029;-84
2023/03/28 11:44:45;;;;;;;3.45;1.63;;;;;;;;;;5006707;28;20045;-86
2023/03/28 11:47:21;;;;;;;3.15;1.40;;;;;;;;;;5022854;28;20533;-85
2023/03/28 11:50:06;;;;;;;3.00;1.50;;;;;;;;;;5023653;28;20034;-85
2023/03/28 11:53:14;;;;;;;3.20;1.70;;;;;;;;;;5022397;28;20500;-85
2023/03/28 11:56:11;;;;;;;5.75;2.30;;;;;;;;;;5021891;28;20375;-86
2023/03/28 11:59:01;;;;;;;6.00;1.98;;;;;;;;;;5027126;28;20536;-84
2023/03/28 12:01:31;;;;;;;3.80;1.55;;;;;;;;;;5036149;23;20072;-84
2023/03/28 12:04:11;;;;;;;3.60;1.80;;;;;;;;;;5049804;28;20034;-86
2023/03/28 12:07:07;;;;;;;2.92;1.48;;;;;;;;;;5031397;28;20041;-83
2023/03/28 12:09:52;;;;;;;5.55;1.73;;;;;;;;;;5033018;28;20056;-84
2023/03/28 12:12:29;;;;;;;2.28;1.50;;;;;;;;;;5030087;28;20068;-83
2023/03/28 12:15:17;;;;;;;4.32;1.70;;;;;;;;;;5027811;28;20498;-84
2023/03/28 12:17:53;;;;;;;3.92;1.50;;;;;;;;;;5008876;28;20126;-83
2023/03/28 12:20:46;;;;;;;5.60;2.08;;;;;;;;;;5007875;28;20124;-84
2023/03/28 12:23:36;;;;;;;2.97;1.63;;;;;;;;;;5016224;28;20494;-84
2023/03/28 12:26:53;;;;;;;5.93;1.85;;;;;;;;;;5013894;28;20130;-84
2023/03/28 12:29:35;;;;;;;5.28;1.80;;;;;;;;;;5006740;28;20061;-84
2023/03/28 12:32:23;;;;;;;3.53;1.60;;;;;;;;;;5006914;28;20125;-85
2023/03/28 12:35:12;;;;;;;3.63;1.80;;;;;;;;;;4990306;28;20506;-85
2023/03/28 12:38:01;;;;;;;6.10;1.92;;;;;;;;;;5014203;28;20037;-83
2023/03/28 12:40:53;;;;;;;4.38;1.60;;;;;;;;;;5015944;28;20038;-85
2023/03/28 12:43:27;;;;;;;4.82;1.75;;;;;;;;;;5029263;28;20027;-83
2023/03/28 12:45:56;;;;;;;3.55;1.70;;;;;;;;;;5013836;28;20375;-83
2023/03/28 12:48:37;;;;;;;3.65;1.90;;;;;;;;;;5015291;28;20069;-83
2023/03/28 12:51:13;;;;;;;4.82;1.70;;;;;;;;;;5019018;28;20030;-82
2023/03/28 12:54:07;;;;;;;3.72;1.70;;;;;;;;;;5021235;28;20037;-84
2023/03/28 12:56:33;;;;;;;5.65;1.90;;;;;;;;;;4986105;28;20128;-84
2023/03/28 12:59:34;;;;;;;4.32;1.80;;;;;;;;;;5016428;28;20038;-81
2023/03/28 13:02:07;;;;;;;2.85;1.70;;;;;;;;;;5014750;28;20034;-85
2023/03/28 13:04:42;;;;;;;3.40;1.60;;;;;;;;;;5013993;28;20037;-83
2023/03/28 13:07:42;;;;;;;2.30;1.60;;;;;;;;;;5021575;28;20042;-81
2023/03/28 13:10:23;;;;;;;2.97;1.67;;;;;;;;;;5020681;28;20103;-83
2023/03/28 13:12:51;;;;;;;2.72;1.60;;;;;;;;;;5018379;28;20033;-83
2023/03/28 13:15:20;;;;;;;3.83;1.85;;;;;;;;;;5021256;28;20483;-83
2023/03/28 13:17:47;;;;;;;4.38;1.45;;;;;;;;;;5022420;28;20041;-82
2023/03/28 13:20:16;;;;;;;3.88;1.50;;;;;;;;;;5018520;28;20038;-83
2023/03/28 13:22:47;;;;;;;4.68;1.52;;;;;;;;;;5021259;28;20041;-83
2023/03/28 13:25:31;;;;;;;2.42;1.50;;;;;;;;;;5028265;28;20053;-82
2023/03/28 13:28:11;;;;;;;7.10;1.60;;;;;;;;;;5019416;28;20037;-82
2023/03/28 13:30:43;;;;;;;4.25;1.60;;;;;;;;;;5018924;28;20150;-82
2023/03/28 13:33:18;;;;;;;2.28;1.50;;;;;;;;;;5022883;28;20100;-84
2023/03/28 13:35:58;;;;;;;2.47;1.30;;;;;;;;;;5018130;28;20064;-84
2023/03/28 13:38:26;;;;;;;2.90;1.48;;;;;;;;;;5017060;28;20507;-83
2023/03/28 13:41:00;;;;;;;3.78;1.40;;;;;;;;;;5034548;28;20112;-83
2023/03/28 13:43:32;;;;;;;4.50;1.70;;;;;;;;;;5021418;28;20049;-81
2023/03/28 13:46:04;;;;;;;2.03;1.30;;;;;;;;;;4998605;28;20076;-85
2023/03/28 13:48:50;;;;;;;3.97;1.60;;;;;;;;;;5019603;28;20034;-84
2023/03/28 13:51:21;;;;;;;2.53;1.38;;;;;;;;;;5013253;28;20384;-82
2023/03/28 13:53:47;;;;;;;3.05;1.40;;;;;;;;;;5018954;28;20065;-82
2023/03/28 13:56:29;;;;;;;4.35;1.73;;;;;;;;;;5019332;28;20083;-84
2023/03/28 13:58:57;;;;;;;4.75;1.40;;;;;;;;;;5009862;28;20049;-82
2023/03/28 14:01:31;;;;;;;3.90;1.40;;;;;;;;;;5019043;28;20104;-83
2023/03/28 14:03:57;;;;;;;3.33;1.60;;;;;;;;;;5006121;28;20039;-82
2023/03/28 14:06:28;;;;;;;2.17;1.40;;;;;;;;;;5019803;28;20057;-81
2023/03/28 14:08:57;;;;;;;3.40;1.77;;;;;;;;;;5019050;28;20498;-84
2023/03/28 14:11:30;;;;;;;3.10;1.55;;;;;;;;;;5018987;28;20061;-84
2023/03/28 14:14:04;;;;;;;;;;;;;;;;;;5019278;28;20068;-79
2023/03/28 14:16:31;;;;;;;;;;;;;;;;;;5020823;28;19957;-80
2023/03/28 14:18:59;;;;;;;3.35;1.40;;;;;;;;;;5020680;28;19909;-83
2023/03/28 14:21:24;;;;;;;3.25;1.40;;;;;;;;;;5010508;28;20045;-81
2023/03/28 14:23:57;;;;;;;2.97;1.50;;;;;;;;;;5019494;28;20034;-86
2023/03/28 14:26:27;;;;;;;4.15;1.65;;;;;;;;;;5017663;28;20033;-84
2023/03/28 14:28:59;;;;;;;4.30;1.50;;;;;;;;;;5019681;28;20033;-84
2023/03/28 14:31:34;;;;;;;2.83;1.30;;;;;;;;;;5020009;28;20046;-83
2023/03/28 14:34:12;;;;;;;3.08;1.42;;;;;;;;;;5007315;28;20128;-82
2023/03/28 14:36:53;;;;;;;5.43;2.38;;;;;;;;;;5018979;28;20048;-83
2023/03/28 14:39:18;;;;;;;4.70;2.05;;;;;;;;;;5018105;28;20026;-81
2023/03/28 14:41:44;;;;;;;2.22;1.48;;;;;;;;;;5019544;28;20080;-83
2023/03/28 14:44:11;;;;;;;3.28;2.10;;;;;;;;;;5017027;28;20052;-83
2023/03/28 14:46:37;;;;;;;2.88;1.20;;;;;;;;;;5008518;28;20038;-85
2023/03/28 14:49:06;;;;;;;1.95;1.38;;;;;;;;;;5017117;28;20525;-83
2023/03/28 14:51:43;;;;;;;6.13;1.40;;;;;;;;;;5016820;28;20037;-84
2023/03/28 14:54:23;;;;;;;2.83;1.42;;;;;;;;;;5011774;28;20041;-82
2023/03/28 14:56:49;;;;;;;2.50;1.40;;;;;;;;;;5016795;28;20092;-84
2023/03/28 14:59:18;;;;;;;2.45;1.20;;;;;;;;;;5016426;28;20512;-83
2023/03/28 15:01:47;;;;;;;3.55;1.70;;;;;;;;;;5007098;28;20079;-84
2023/03/28 15:04:14;;;;;;;5.43;1.58;;;;;;;;;;5014395;28;20037;-84
2023/03/28 15:06:40;;;;;;;2.63;1.30;;;;;;;;;;5023673;28;20034;-83
2023/03/28 15:09:19;;;;;;;2.13;1.40;;;;;;;;;;5011659;28;20618;-84
2023/03/28 15:11:45;;;;;;;2.92;1.70;;;;;;;;;;5015504;28;20052;-84
2023/03/28 15:14:41;;;;;;;2.95;1.65;;;;;;;;;;5013885;28;20041;-84
2023/03/28 15:17:16;;;;;;;5.07;2.60;;;;;;;;;;5002906;28;20395;-84
2023/03/28 15:19:45;;;;;;;5.50;2.55;;;;;;;;;;5016052;28;20323;-84
2023/03/28 15:22:16;;;;;;;6.38;2.40;;;;;;;;;;5016315;28;20037;-84
2023/03/28 15:24:43;;;;;;;5.70;2.20;;;;;;;;;;5027177;28;20039;-83
2023/03/28 15:27:21;;;;;;;1.50;1.15;;;;;;;;;;5016128;28;20037;-83
2023/03/28 15:29:47;;;;;;;2.80;1.60;;;;;;;;;;5013176;28;20038;-83